sensor_id;sensor_type;location;lat;lon;timestamp;P1;durP1;ratioP1;P2;durP2;ratioP2
55202;SDS011;41077;52.956;6.796;2022-08-01T00:01:52;71.18;;;66.30;;
55202;SDS011;41077;52.956;6.796;2022-08-01T00:04:17;75.45;;;70.30;;
55202;SDS011;41077;52.956;6.796;2022-08-01T00:06:43;73.43;;;68.28;;
55202;SDS011;41077;52.956;6.796;2022-08-01T00:09:09;65.20;;;60.42;;
55202;SDS011;41077;52.956;6.796;2022-08-01T00:11:34;69.38;;;64.55;;
55202;SDS011;41077;52.956;6.796;2022-08-01T00:14:00;75.82;;;70.72;;
55202;SDS011;41077;52.956;6.796;2022-08-01T00:16:26;67.38;;;62.65;;
55202;SDS011;41077;52.956;6.796;2022-08-01T00:18:52;68.38;;;63.88;;
55202;SDS011;41077;52.956;6.796;2022-08-01T00:21:18;71.82;;;67.15;;
55202;SDS011;41077;52.956;6.796;2022-08-01T00:23:43;74.45;;;69.40;;
55202;SDS011;41077;52.956;6.796;2022-08-01T00:26:13;64.43;;;60.22;;
55202;SDS011;41077;52.956;6.796;2022-08-01T00:28:39;68.75;;;64.05;;
55202;SDS011;41077;52.956;6.796;2022-08-01T00:31:05;66.55;;;61.95;;
55202;SDS011;41077;52.956;6.796;2022-08-01T00:33:30;70.50;;;65.90;;
55202;SDS011;41077;52.956;6.796;2022-08-01T00:35:56;81.43;;;76.00;;
55202;SDS011;41077;52.956;6.796;2022-08-01T00:38:22;71.03;;;66.13;;
55202;SDS011;41077;52.956;6.796;2022-08-01T00:40:47;70.90;;;66.07;;
55202;SDS011;41077;52.956;6.796;2022-08-01T00:43:13;70.53;;;65.03;;
55202;SDS011;41077;52.956;6.796;2022-08-01T00:45:39;67.40;;;62.97;;
55202;SDS011;41077;52.956;6.796;2022-08-01T00:48:05;67.50;;;62.65;;
55202;SDS011;41077;52.956;6.796;2022-08-01T00:50:31;71.28;;;65.72;;
55202;SDS011;41077;52.956;6.796;2022-08-01T00:52:57;70.97;;;65.95;;
55202;SDS011;41077;52.956;6.796;2022-08-01T00:55:23;69.40;;;64.38;;
55202;SDS011;41077;52.956;6.796;2022-08-01T00:57:49;85.68;;;79.63;;
55202;SDS011;41077;52.956;6.796;2022-08-01T01:00:15;72.07;;;67.05;;
55202;SDS011;41077;52.956;6.796;2022-08-01T01:02:41;82.93;;;77.15;;
55202;SDS011;41077;52.956;6.796;2022-08-01T01:05:08;81.35;;;75.72;;
55202;SDS011;41077;52.956;6.796;2022-08-01T01:07:36;75.20;;;70.13;;
55202;SDS011;41077;52.956;6.796;2022-08-01T01:13:26;74.28;;;69.03;;
55202;SDS011;41077;52.956;6.796;2022-08-01T01:16:10;76.65;;;71.95;;
55202;SDS011;41077;52.956;6.796;2022-08-01T01:18:43;85.35;;;80.38;;
55202;SDS011;41077;52.956;6.796;2022-08-01T01:26:33;97.30;;;91.55;;
55202;SDS011;41077;52.956;6.796;2022-08-01T01:29:25;62.55;;;58.22;;
55202;SDS011;41077;52.956;6.796;2022-08-01T01:32:05;67.22;;;62.13;;
55202;SDS011;41077;52.956;6.796;2022-08-01T01:34:38;72.43;;;67.82;;
55202;SDS011;41077;52.956;6.796;2022-08-01T01:37:07;62.72;;;58.63;;
55202;SDS011;41077;52.956;6.796;2022-08-01T01:39:37;80.22;;;75.03;;
55202;SDS011;41077;52.956;6.796;2022-08-01T01:42:05;101.40;;;95.00;;
55202;SDS011;41077;52.956;6.796;2022-08-01T01:44:32;69.68;;;65.18;;
55202;SDS011;41077;52.956;6.796;2022-08-01T01:47:00;66.88;;;62.75;;
55202;SDS011;41077;52.956;6.796;2022-08-01T01:49:27;89.65;;;84.50;;
55202;SDS011;41077;52.956;6.796;2022-08-01T01:51:55;63.75;;;59.30;;
55202;SDS011;41077;52.956;6.796;2022-08-01T01:54:22;64.10;;;60.00;;
55202;SDS011;41077;52.956;6.796;2022-08-01T01:56:53;65.30;;;61.35;;
55202;SDS011;41077;52.956;6.796;2022-08-01T01:59:24;66.93;;;62.42;;
55202;SDS011;41077;52.956;6.796;2022-08-01T02:01:54;58.25;;;54.60;;
55202;SDS011;41077;52.956;6.796;2022-08-01T02:04:23;76.15;;;70.95;;
55202;SDS011;41077;52.956;6.796;2022-08-01T02:06:51;59.58;;;55.85;;
55202;SDS011;41077;52.956;6.796;2022-08-01T02:09:18;72.28;;;68.03;;
55202;SDS011;41077;52.956;6.796;2022-08-01T02:11:48;74.93;;;70.18;;
55202;SDS011;41077;52.956;6.796;2022-08-01T02:14:15;64.47;;;60.38;;
55202;SDS011;41077;52.956;6.796;2022-08-01T02:16:44;62.72;;;58.63;;
55202;SDS011;41077;52.956;6.796;2022-08-01T02:19:16;64.85;;;60.50;;
55202;SDS011;41077;52.956;6.796;2022-08-01T02:22:27;67.28;;;63.22;;
55202;SDS011;41077;52.956;6.796;2022-08-01T02:24:44;65.53;;;61.35;;
55202;SDS011;41077;52.956;6.796;2022-08-01T02:27:37;66.05;;;61.90;;
55202;SDS011;41077;52.956;6.796;2022-08-01T02:30:08;65.68;;;61.38;;
55202;SDS011;41077;52.956;6.796;2022-08-01T02:32:41;60.50;;;56.92;;
55202;SDS011;41077;52.956;6.796;2022-08-01T02:35:18;66.35;;;62.25;;
55202;SDS011;41077;52.956;6.796;2022-08-01T02:37:48;60.83;;;57.15;;
55202;SDS011;41077;52.956;6.796;2022-08-01T02:40:14;63.33;;;59.53;;
55202;SDS011;41077;52.956;6.796;2022-08-01T02:42:43;59.00;;;55.40;;
55202;SDS011;41077;52.956;6.796;2022-08-01T02:45:12;61.92;;;58.35;;
55202;SDS011;41077;52.956;6.796;2022-08-01T02:47:38;64.15;;;60.08;;
55202;SDS011;41077;52.956;6.796;2022-08-01T02:50:06;56.00;;;52.72;;
55202;SDS011;41077;52.956;6.796;2022-08-01T02:52:36;58.70;;;55.30;;
55202;SDS011;41077;52.956;6.796;2022-08-01T02:55:03;63.60;;;59.58;;
55202;SDS011;41077;52.956;6.796;2022-08-01T02:57:30;63.90;;;59.42;;
55202;SDS011;41077;52.956;6.796;2022-08-01T02:59:57;64.45;;;59.60;;
55202;SDS011;41077;52.956;6.796;2022-08-01T03:02:24;61.33;;;57.20;;
55202;SDS011;41077;52.956;6.796;2022-08-01T03:04:51;65.28;;;61.60;;
55202;SDS011;41077;52.956;6.796;2022-08-01T03:07:19;60.63;;;56.92;;
55202;SDS011;41077;52.956;6.796;2022-08-01T03:09:46;60.17;;;56.13;;
55202;SDS011;41077;52.956;6.796;2022-08-01T03:12:17;62.85;;;58.67;;
55202;SDS011;41077;52.956;6.796;2022-08-01T03:14:46;58.15;;;54.53;;
55202;SDS011;41077;52.956;6.796;2022-08-01T03:17:14;57.75;;;53.30;;
55202;SDS011;41077;52.956;6.796;2022-08-01T03:19:42;60.58;;;56.53;;
55202;SDS011;41077;52.956;6.796;2022-08-01T03:22:11;56.63;;;53.38;;
55202;SDS011;41077;52.956;6.796;2022-08-01T03:24:39;68.25;;;64.00;;
55202;SDS011;41077;52.956;6.796;2022-08-01T03:27:06;63.30;;;59.78;;
55202;SDS011;41077;52.956;6.796;2022-08-01T03:29:33;62.65;;;58.22;;
55202;SDS011;41077;52.956;6.796;2022-08-01T03:32:01;60.83;;;57.15;;
55202;SDS011;41077;52.956;6.796;2022-08-01T03:34:27;61.08;;;57.15;;
55202;SDS011;41077;52.956;6.796;2022-08-01T03:37:15;66.15;;;61.97;;
55202;SDS011;41077;52.956;6.796;2022-08-01T03:40:04;60.80;;;57.08;;
55202;SDS011;41077;52.956;6.796;2022-08-01T03:42:32;55.30;;;52.00;;
55202;SDS011;41077;52.956;6.796;2022-08-01T03:45:07;60.35;;;56.10;;
55202;SDS011;41077;52.956;6.796;2022-08-01T03:47:35;60.78;;;57.10;;
55202;SDS011;41077;52.956;6.796;2022-08-01T03:50:02;61.67;;;57.75;;
55202;SDS011;41077;52.956;6.796;2022-08-01T03:52:32;60.72;;;56.72;;
55202;SDS011;41077;52.956;6.796;2022-08-01T03:55:01;56.92;;;53.33;;
55202;SDS011;41077;52.956;6.796;2022-08-01T03:57:32;59.80;;;55.55;;
55202;SDS011;41077;52.956;6.796;2022-08-01T03:59:59;58.95;;;54.95;;
55202;SDS011;41077;52.956;6.796;2022-08-01T04:02:28;60.60;;;56.95;;
55202;SDS011;41077;52.956;6.796;2022-08-01T04:04:54;61.78;;;58.38;;
55202;SDS011;41077;52.956;6.796;2022-08-01T04:07:27;57.85;;;53.97;;
55202;SDS011;41077;52.956;6.796;2022-08-01T04:09:54;65.30;;;61.25;;
55202;SDS011;41077;52.956;6.796;2022-08-01T04:12:21;65.28;;;60.63;;
55202;SDS011;41077;52.956;6.796;2022-08-01T04:14:47;64.95;;;60.67;;
55202;SDS011;41077;52.956;6.796;2022-08-01T04:17:13;63.63;;;59.67;;
55202;SDS011;41077;52.956;6.796;2022-08-01T04:19:42;70.68;;;66.03;;
55202;SDS011;41077;52.956;6.796;2022-08-01T04:22:09;65.25;;;61.03;;
55202;SDS011;41077;52.956;6.796;2022-08-01T04:24:36;65.60;;;61.58;;
55202;SDS011;41077;52.956;6.796;2022-08-01T04:27:04;62.80;;;58.22;;
55202;SDS011;41077;52.956;6.796;2022-08-01T04:29:35;67.00;;;61.17;;
55202;SDS011;41077;52.956;6.796;2022-08-01T04:32:02;63.60;;;59.55;;
55202;SDS011;41077;52.956;6.796;2022-08-01T04:34:30;60.90;;;56.88;;
55202;SDS011;41077;52.956;6.796;2022-08-01T04:36:57;58.38;;;54.20;;
55202;SDS011;41077;52.956;6.796;2022-08-01T04:39:25;60.53;;;56.22;;
55202;SDS011;41077;52.956;6.796;2022-08-01T04:41:52;66.55;;;62.35;;
55202;SDS011;41077;52.956;6.796;2022-08-01T04:44:23;58.25;;;54.38;;
55202;SDS011;41077;52.956;6.796;2022-08-01T04:46:49;65.45;;;60.17;;
55202;SDS011;41077;52.956;6.796;2022-08-01T04:49:19;61.05;;;56.30;;
55202;SDS011;41077;52.956;6.796;2022-08-01T04:51:49;66.18;;;61.65;;
55202;SDS011;41077;52.956;6.796;2022-08-01T04:54:16;68.00;;;63.50;;
55202;SDS011;41077;52.956;6.796;2022-08-01T04:56:41;64.28;;;60.17;;
55202;SDS011;41077;52.956;6.796;2022-08-01T04:59:07;63.72;;;58.80;;
55202;SDS011;41077;52.956;6.796;2022-08-01T05:01:51;68.40;;;62.47;;
55202;SDS011;41077;52.956;6.796;2022-08-01T05:04:17;66.72;;;62.22;;
55202;SDS011;41077;52.956;6.796;2022-08-01T05:06:43;68.82;;;63.90;;
55202;SDS011;41077;52.956;6.796;2022-08-01T05:09:09;66.78;;;62.45;;
55202;SDS011;41077;52.956;6.796;2022-08-01T05:11:34;67.82;;;63.17;;
55202;SDS011;41077;52.956;6.796;2022-08-01T05:14:00;75.53;;;69.70;;
55202;SDS011;41077;52.956;6.796;2022-08-01T05:16:26;69.50;;;65.20;;
55202;SDS011;41077;52.956;6.796;2022-08-01T05:18:51;64.80;;;60.17;;
55202;SDS011;41077;52.956;6.796;2022-08-01T05:21:17;66.72;;;62.03;;
55202;SDS011;41077;52.956;6.796;2022-08-01T05:23:43;70.25;;;64.72;;
55202;SDS011;41077;52.956;6.796;2022-08-01T05:26:09;65.63;;;60.60;;
55202;SDS011;41077;52.956;6.796;2022-08-01T05:28:35;71.53;;;66.88;;
55202;SDS011;41077;52.956;6.796;2022-08-01T05:31:01;66.35;;;61.70;;
55202;SDS011;41077;52.956;6.796;2022-08-01T05:33:28;70.15;;;64.28;;
55202;SDS011;41077;52.956;6.796;2022-08-01T05:35:53;73.57;;;68.68;;
55202;SDS011;41077;52.956;6.796;2022-08-01T05:38:19;70.32;;;65.82;;
55202;SDS011;41077;52.956;6.796;2022-08-01T05:40:45;71.35;;;65.90;;
55202;SDS011;41077;52.956;6.796;2022-08-01T05:43:10;70.65;;;65.68;;
55202;SDS011;41077;52.956;6.796;2022-08-01T05:45:36;70.68;;;65.10;;
55202;SDS011;41077;52.956;6.796;2022-08-01T05:48:02;67.82;;;62.08;;
55202;SDS011;41077;52.956;6.796;2022-08-01T05:50:28;71.20;;;65.80;;
55202;SDS011;41077;52.956;6.796;2022-08-01T05:52:53;67.10;;;62.78;;
55202;SDS011;41077;52.956;6.796;2022-08-01T05:55:19;79.30;;;73.88;;
55202;SDS011;41077;52.956;6.796;2022-08-01T05:57:45;72.85;;;66.50;;
55202;SDS011;41077;52.956;6.796;2022-08-01T06:00:10;84.65;;;78.75;;
55202;SDS011;41077;52.956;6.796;2022-08-01T06:02:41;82.68;;;76.65;;
55202;SDS011;41077;52.956;6.796;2022-08-01T06:05:08;67.90;;;63.40;;
55202;SDS011;41077;52.956;6.796;2022-08-01T06:07:34;81.70;;;76.15;;
55202;SDS011;41077;52.956;6.796;2022-08-01T06:10:00;71.45;;;66.38;;
55202;SDS011;41077;52.956;6.796;2022-08-01T06:12:26;70.22;;;65.13;;
55202;SDS011;41077;52.956;6.796;2022-08-01T06:14:51;78.20;;;72.25;;
55202;SDS011;41077;52.956;6.796;2022-08-01T06:17:17;76.30;;;70.68;;
55202;SDS011;41077;52.956;6.796;2022-08-01T06:19:43;72.93;;;67.68;;
55202;SDS011;41077;52.956;6.796;2022-08-01T06:22:09;72.38;;;66.07;;
55202;SDS011;41077;52.956;6.796;2022-08-01T06:24:34;71.88;;;66.78;;
55202;SDS011;41077;52.956;6.796;2022-08-01T06:27:01;73.63;;;67.15;;
55202;SDS011;41077;52.956;6.796;2022-08-01T06:29:27;71.65;;;65.85;;
55202;SDS011;41077;52.956;6.796;2022-08-01T06:31:55;76.82;;;70.13;;
55202;SDS011;41077;52.956;6.796;2022-08-01T06:34:21;74.40;;;68.07;;
55202;SDS011;41077;52.956;6.796;2022-08-01T06:36:47;74.00;;;68.53;;
55202;SDS011;41077;52.956;6.796;2022-08-01T06:39:13;79.88;;;74.15;;
55202;SDS011;41077;52.956;6.796;2022-08-01T06:41:39;72.22;;;66.55;;
55202;SDS011;41077;52.956;6.796;2022-08-01T06:44:06;77.30;;;71.85;;
55202;SDS011;41077;52.956;6.796;2022-08-01T06:46:32;75.03;;;69.78;;
55202;SDS011;41077;52.956;6.796;2022-08-01T06:48:59;88.10;;;81.63;;
55202;SDS011;41077;52.956;6.796;2022-08-01T06:51:25;76.32;;;70.63;;
55202;SDS011;41077;52.956;6.796;2022-08-01T06:53:51;66.22;;;61.03;;
55202;SDS011;41077;52.956;6.796;2022-08-01T06:56:17;75.85;;;70.82;;
55202;SDS011;41077;52.956;6.796;2022-08-01T06:58:43;70.80;;;65.15;;
55202;SDS011;41077;52.956;6.796;2022-08-01T07:01:09;75.28;;;70.53;;
55202;SDS011;41077;52.956;6.796;2022-08-01T07:03:35;70.80;;;64.82;;
55202;SDS011;41077;52.956;6.796;2022-08-01T07:06:01;73.97;;;68.35;;
55202;SDS011;41077;52.956;6.796;2022-08-01T07:08:27;81.18;;;74.78;;
55202;SDS011;41077;52.956;6.796;2022-08-01T07:10:53;74.32;;;69.03;;
55202;SDS011;41077;52.956;6.796;2022-08-01T07:13:18;73.43;;;67.95;;
55202;SDS011;41077;52.956;6.796;2022-08-01T07:15:46;81.22;;;74.80;;
55202;SDS011;41077;52.956;6.796;2022-08-01T07:18:12;70.10;;;64.70;;
55202;SDS011;41077;52.956;6.796;2022-08-01T07:20:38;89.22;;;83.43;;
55202;SDS011;41077;52.956;6.796;2022-08-01T07:23:04;76.72;;;70.70;;
55202;SDS011;41077;52.956;6.796;2022-08-01T07:25:29;70.93;;;65.10;;
55202;SDS011;41077;52.956;6.796;2022-08-01T07:27:55;67.68;;;62.25;;
55202;SDS011;41077;52.956;6.796;2022-08-01T07:30:21;67.68;;;62.35;;
55202;SDS011;41077;52.956;6.796;2022-08-01T07:32:47;73.82;;;68.35;;
55202;SDS011;41077;52.956;6.796;2022-08-01T07:35:13;76.03;;;69.88;;
55202;SDS011;41077;52.956;6.796;2022-08-01T07:37:39;80.93;;;74.40;;
55202;SDS011;41077;52.956;6.796;2022-08-01T07:40:04;78.47;;;72.40;;
55202;SDS011;41077;52.956;6.796;2022-08-01T07:42:31;76.88;;;70.50;;
55202;SDS011;41077;52.956;6.796;2022-08-01T07:44:57;73.55;;;67.85;;
55202;SDS011;41077;52.956;6.796;2022-08-01T07:47:23;68.05;;;62.83;;
55202;SDS011;41077;52.956;6.796;2022-08-01T07:49:49;68.35;;;63.17;;
55202;SDS011;41077;52.956;6.796;2022-08-01T07:52:15;78.57;;;72.35;;
55202;SDS011;41077;52.956;6.796;2022-08-01T07:54:41;70.43;;;64.65;;
55202;SDS011;41077;52.956;6.796;2022-08-01T07:57:07;70.45;;;65.00;;
55202;SDS011;41077;52.956;6.796;2022-08-01T07:59:33;69.82;;;64.15;;
55202;SDS011;41077;52.956;6.796;2022-08-01T08:01:59;66.72;;;61.78;;
55202;SDS011;41077;52.956;6.796;2022-08-01T08:04:25;75.75;;;70.05;;
55202;SDS011;41077;52.956;6.796;2022-08-01T08:06:52;88.43;;;81.95;;
55202;SDS011;41077;52.956;6.796;2022-08-01T08:09:18;79.78;;;73.28;;
55202;SDS011;41077;52.956;6.796;2022-08-01T08:11:44;74.60;;;69.28;;
55202;SDS011;41077;52.956;6.796;2022-08-01T08:14:10;76.85;;;71.32;;
55202;SDS011;41077;52.956;6.796;2022-08-01T08:16:37;76.50;;;71.32;;
55202;SDS011;41077;52.956;6.796;2022-08-01T08:19:03;77.38;;;71.55;;
55202;SDS011;41077;52.956;6.796;2022-08-01T08:21:29;85.38;;;79.03;;
55202;SDS011;41077;52.956;6.796;2022-08-01T08:23:55;78.15;;;71.30;;
55202;SDS011;41077;52.956;6.796;2022-08-01T08:26:40;80.85;;;74.13;;
55202;SDS011;41077;52.956;6.796;2022-08-01T08:29:05;79.70;;;73.53;;
55202;SDS011;41077;52.956;6.796;2022-08-01T08:31:31;87.80;;;82.03;;
55202;SDS011;41077;52.956;6.796;2022-08-01T08:33:57;85.28;;;79.85;;
55202;SDS011;41077;52.956;6.796;2022-08-01T08:36:23;76.60;;;70.82;;
55202;SDS011;41077;52.956;6.796;2022-08-01T08:38:49;88.78;;;82.35;;
55202;SDS011;41077;52.956;6.796;2022-08-01T08:41:15;84.97;;;78.35;;
55202;SDS011;41077;52.956;6.796;2022-08-01T08:43:40;84.45;;;78.55;;
55202;SDS011;41077;52.956;6.796;2022-08-01T08:46:06;83.70;;;77.70;;
55202;SDS011;41077;52.956;6.796;2022-08-01T08:48:33;91.80;;;85.72;;
55202;SDS011;41077;52.956;6.796;2022-08-01T08:51:00;96.45;;;90.20;;
55202;SDS011;41077;52.956;6.796;2022-08-01T08:53:26;110.43;;;103.88;;
55202;SDS011;41077;52.956;6.796;2022-08-01T08:55:52;101.80;;;94.70;;
55202;SDS011;41077;52.956;6.796;2022-08-01T08:58:21;100.07;;;93.80;;
55202;SDS011;41077;52.956;6.796;2022-08-01T09:00:50;98.32;;;91.93;;
55202;SDS011;41077;52.956;6.796;2022-08-01T09:03:16;101.25;;;95.15;;
55202;SDS011;41077;52.956;6.796;2022-08-01T09:05:42;97.38;;;91.50;;
55202;SDS011;41077;52.956;6.796;2022-08-01T09:08:09;92.53;;;86.03;;
55202;SDS011;41077;52.956;6.796;2022-08-01T09:10:34;94.88;;;88.57;;
55202;SDS011;41077;52.956;6.796;2022-08-01T09:23:43;87.00;;;81.70;;
55202;SDS011;41077;52.956;6.796;2022-08-01T09:26:19;94.68;;;88.25;;
55202;SDS011;41077;52.956;6.796;2022-08-01T09:28:59;92.72;;;86.70;;
55202;SDS011;41077;52.956;6.796;2022-08-01T09:31:28;90.38;;;84.32;;
55202;SDS011;41077;52.956;6.796;2022-08-01T09:33:55;85.75;;;80.63;;
55202;SDS011;41077;52.956;6.796;2022-08-01T09:36:46;94.20;;;88.68;;
55202;SDS011;41077;52.956;6.796;2022-08-01T09:39:16;90.43;;;84.88;;
55202;SDS011;41077;52.956;6.796;2022-08-01T09:41:43;113.78;;;107.32;;
55202;SDS011;41077;52.956;6.796;2022-08-01T09:44:09;85.72;;;80.90;;
55202;SDS011;41077;52.956;6.796;2022-08-01T09:46:35;87.45;;;81.30;;
55202;SDS011;41077;52.956;6.796;2022-08-01T09:49:05;92.40;;;86.95;;
55202;SDS011;41077;52.956;6.796;2022-08-01T09:51:40;83.32;;;78.25;;
55202;SDS011;41077;52.956;6.796;2022-08-01T09:54:06;89.13;;;83.40;;
55202;SDS011;41077;52.956;6.796;2022-08-01T09:56:35;68.72;;;63.47;;
55202;SDS011;41077;52.956;6.796;2022-08-01T09:59:07;64.13;;;60.30;;
55202;SDS011;41077;52.956;6.796;2022-08-01T10:04:11;79.03;;;74.30;;
55202;SDS011;41077;52.956;6.796;2022-08-01T10:06:39;83.35;;;78.00;;
55202;SDS011;41077;52.956;6.796;2022-08-01T10:09:08;83.07;;;78.57;;
55202;SDS011;41077;52.956;6.796;2022-08-01T10:11:34;78.88;;;74.13;;
55202;SDS011;41077;52.956;6.796;2022-08-01T10:14:04;65.20;;;60.72;;
55202;SDS011;41077;52.956;6.796;2022-08-01T10:16:30;68.07;;;63.80;;
55202;SDS011;41077;52.956;6.796;2022-08-01T10:18:58;60.75;;;57.00;;
55202;SDS011;41077;52.956;6.796;2022-08-01T10:21:25;66.55;;;62.55;;
55202;SDS011;41077;52.956;6.796;2022-08-01T10:23:52;68.82;;;64.10;;
55202;SDS011;41077;52.956;6.796;2022-08-01T10:26:21;73.03;;;68.75;;
55202;SDS011;41077;52.956;6.796;2022-08-01T10:28:49;56.80;;;53.22;;
55202;SDS011;41077;52.956;6.796;2022-08-01T10:31:16;57.30;;;53.78;;
55202;SDS011;41077;52.956;6.796;2022-08-01T10:33:42;65.63;;;61.85;;
55202;SDS011;41077;52.956;6.796;2022-08-01T10:36:09;62.97;;;58.75;;
55202;SDS011;41077;52.956;6.796;2022-08-01T10:38:35;65.15;;;61.33;;
55202;SDS011;41077;52.956;6.796;2022-08-01T10:41:03;60.42;;;56.22;;
55202;SDS011;41077;52.956;6.796;2022-08-01T10:43:29;62.55;;;58.50;;
55202;SDS011;41077;52.956;6.796;2022-08-01T10:45:55;62.13;;;58.38;;
55202;SDS011;41077;52.956;6.796;2022-08-01T10:48:24;50.17;;;46.40;;
55202;SDS011;41077;52.956;6.796;2022-08-01T10:50:52;49.90;;;45.80;;
55202;SDS011;41077;52.956;6.796;2022-08-01T10:53:20;51.45;;;48.22;;
55202;SDS011;41077;52.956;6.796;2022-08-01T11:14:25;45.33;;;42.30;;
55202;SDS011;41077;52.956;6.796;2022-08-01T11:16:51;53.65;;;50.53;;
55202;SDS011;41077;52.956;6.796;2022-08-01T11:19:17;54.78;;;51.50;;
55202;SDS011;41077;52.956;6.796;2022-08-01T11:29:43;57.15;;;53.33;;
55202;SDS011;41077;52.956;6.796;2022-08-01T11:32:29;66.03;;;62.05;;
55202;SDS011;41077;52.956;6.796;2022-08-01T11:34:55;63.25;;;59.80;;
55202;SDS011;41077;52.956;6.796;2022-08-01T11:37:27;82.63;;;78.00;;
55202;SDS011;41077;52.956;6.796;2022-08-01T11:42:46;51.53;;;47.95;;
55202;SDS011;41077;52.956;6.796;2022-08-01T11:45:13;46.72;;;42.95;;
55202;SDS011;41077;52.956;6.796;2022-08-01T11:50:36;43.72;;;40.90;;
55202;SDS011;41077;52.956;6.796;2022-08-01T11:53:03;35.30;;;33.20;;
55202;SDS011;41077;52.956;6.796;2022-08-01T11:55:30;42.80;;;40.13;;
55202;SDS011;41077;52.956;6.796;2022-08-01T11:58:00;49.22;;;46.25;;
55202;SDS011;41077;52.956;6.796;2022-08-01T12:00:30;29.15;;;27.25;;
55202;SDS011;41077;52.956;6.796;2022-08-01T12:03:06;46.25;;;43.35;;
55202;SDS011;41077;52.956;6.796;2022-08-01T12:05:34;38.47;;;35.75;;
55202;SDS011;41077;52.956;6.796;2022-08-01T12:08:02;42.42;;;39.17;;
55202;SDS011;41077;52.956;6.796;2022-08-01T12:10:29;26.92;;;25.23;;
55202;SDS011;41077;52.956;6.796;2022-08-01T12:13:02;42.85;;;40.00;;
55202;SDS011;41077;52.956;6.796;2022-08-01T12:15:32;26.30;;;24.17;;
55202;SDS011;41077;52.956;6.796;2022-08-01T12:18:01;18.52;;;16.98;;
55202;SDS011;41077;52.956;6.796;2022-08-01T12:20:36;36.78;;;33.78;;
55202;SDS011;41077;52.956;6.796;2022-08-01T12:23:10;36.42;;;33.95;;
55202;SDS011;41077;52.956;6.796;2022-08-01T12:25:38;40.53;;;38.22;;
55202;SDS011;41077;52.956;6.796;2022-08-01T12:28:05;36.38;;;33.88;;
55202;SDS011;41077;52.956;6.796;2022-08-01T12:30:33;17.38;;;15.88;;
55202;SDS011;41077;52.956;6.796;2022-08-01T12:33:00;33.17;;;30.98;;
55202;SDS011;41077;52.956;6.796;2022-08-01T12:35:30;24.92;;;22.95;;
55202;SDS011;41077;52.956;6.796;2022-08-01T12:37:58;31.10;;;28.80;;
55202;SDS011;41077;52.956;6.796;2022-08-01T12:40:27;21.92;;;20.23;;
55202;SDS011;41077;52.956;6.796;2022-08-01T12:42:55;29.08;;;26.90;;
55202;SDS011;41077;52.956;6.796;2022-08-01T12:45:26;22.73;;;20.98;;
55202;SDS011;41077;52.956;6.796;2022-08-01T12:47:54;30.80;;;28.25;;
55202;SDS011;41077;52.956;6.796;2022-08-01T12:50:23;31.45;;;28.80;;
55202;SDS011;41077;52.956;6.796;2022-08-01T12:52:54;19.42;;;17.55;;
55202;SDS011;41077;52.956;6.796;2022-08-01T12:55:25;21.23;;;19.42;;
55202;SDS011;41077;52.956;6.796;2022-08-01T12:58:07;31.83;;;29.23;;
55202;SDS011;41077;52.956;6.796;2022-08-01T13:00:35;30.90;;;28.33;;
55202;SDS011;41077;52.956;6.796;2022-08-01T13:03:04;19.17;;;17.55;;
55202;SDS011;41077;52.956;6.796;2022-08-01T13:08:12;20.60;;;18.90;;
55202;SDS011;41077;52.956;6.796;2022-08-01T13:10:39;25.95;;;23.33;;
55202;SDS011;41077;52.956;6.796;2022-08-01T13:13:06;25.05;;;23.10;;
55202;SDS011;41077;52.956;6.796;2022-08-01T13:15:34;24.35;;;22.25;;
55202;SDS011;41077;52.956;6.796;2022-08-01T13:20:47;15.75;;;14.35;;
55202;SDS011;41077;52.956;6.796;2022-08-01T13:23:16;19.58;;;18.23;;
55202;SDS011;41077;52.956;6.796;2022-08-01T13:25:53;24.60;;;22.45;;
55202;SDS011;41077;52.956;6.796;2022-08-01T13:28:24;16.58;;;15.30;;
55202;SDS011;41077;52.956;6.796;2022-08-01T13:30:55;18.15;;;16.80;;
55202;SDS011;41077;52.956;6.796;2022-08-01T13:33:24;20.90;;;19.00;;
55202;SDS011;41077;52.956;6.796;2022-08-01T13:35:51;22.77;;;20.70;;
55202;SDS011;41077;52.956;6.796;2022-08-01T13:38:21;23.00;;;21.05;;
55202;SDS011;41077;52.956;6.796;2022-08-01T13:41:07;17.00;;;15.45;;
55202;SDS011;41077;52.956;6.796;2022-08-01T13:43:33;18.45;;;16.75;;
55202;SDS011;41077;52.956;6.796;2022-08-01T13:46:00;17.08;;;15.48;;
55202;SDS011;41077;52.956;6.796;2022-08-01T13:48:27;17.33;;;16.02;;
55202;SDS011;41077;52.956;6.796;2022-08-01T13:50:53;20.38;;;18.83;;
55202;SDS011;41077;52.956;6.796;2022-08-01T13:53:19;20.73;;;19.00;;
55202;SDS011;41077;52.956;6.796;2022-08-01T13:55:45;14.50;;;12.07;;
55202;SDS011;41077;52.956;6.796;2022-08-01T13:58:10;12.82;;;11.38;;
55202;SDS011;41077;52.956;6.796;2022-08-01T14:00:36;12.90;;;11.63;;
55202;SDS011;41077;52.956;6.796;2022-08-01T14:03:01;27.48;;;24.98;;
55202;SDS011;41077;52.956;6.796;2022-08-01T14:05:28;16.50;;;15.18;;
55202;SDS011;41077;52.956;6.796;2022-08-01T14:07:54;17.95;;;16.63;;
55202;SDS011;41077;52.956;6.796;2022-08-01T14:10:20;13.20;;;11.82;;
55202;SDS011;41077;52.956;6.796;2022-08-01T14:12:48;19.60;;;16.67;;
55202;SDS011;41077;52.956;6.796;2022-08-01T14:15:14;15.00;;;12.85;;
55202;SDS011;41077;52.956;6.796;2022-08-01T14:17:40;18.90;;;17.10;;
55202;SDS011;41077;52.956;6.796;2022-08-01T14:20:06;20.80;;;18.88;;
55202;SDS011;41077;52.956;6.796;2022-08-01T14:22:32;17.58;;;15.57;;
55202;SDS011;41077;52.956;6.796;2022-08-01T14:24:58;16.33;;;14.73;;
55202;SDS011;41077;52.956;6.796;2022-08-01T14:27:24;17.73;;;14.25;;
55202;SDS011;41077;52.956;6.796;2022-08-01T14:29:50;25.73;;;23.17;;
55202;SDS011;41077;52.956;6.796;2022-08-01T14:32:16;18.45;;;16.52;;
55202;SDS011;41077;52.956;6.796;2022-08-01T14:34:41;18.38;;;16.55;;
55202;SDS011;41077;52.956;6.796;2022-08-01T14:37:07;15.15;;;13.57;;
55202;SDS011;41077;52.956;6.796;2022-08-01T14:39:33;16.17;;;14.70;;
55202;SDS011;41077;52.956;6.796;2022-08-01T14:41:59;15.25;;;14.05;;
55202;SDS011;41077;52.956;6.796;2022-08-01T14:44:24;15.68;;;14.13;;
55202;SDS011;41077;52.956;6.796;2022-08-01T14:46:50;16.27;;;14.70;;
55202;SDS011;41077;52.956;6.796;2022-08-01T14:49:16;20.48;;;18.73;;
55202;SDS011;41077;52.956;6.796;2022-08-01T14:51:41;14.25;;;13.23;;
55202;SDS011;41077;52.956;6.796;2022-08-01T14:54:07;17.88;;;16.35;;
55202;SDS011;41077;52.956;6.796;2022-08-01T14:56:33;14.30;;;12.98;;
55202;SDS011;41077;52.956;6.796;2022-08-01T14:58:58;19.90;;;15.73;;
55202;SDS011;41077;52.956;6.796;2022-08-01T15:01:24;19.73;;;18.15;;
55202;SDS011;41077;52.956;6.796;2022-08-01T15:03:50;18.08;;;16.40;;
55202;SDS011;41077;52.956;6.796;2022-08-01T15:06:16;23.13;;;21.52;;
55202;SDS011;41077;52.956;6.796;2022-08-01T15:08:42;19.75;;;18.10;;
55202;SDS011;41077;52.956;6.796;2022-08-01T15:11:08;19.25;;;17.90;;
55202;SDS011;41077;52.956;6.796;2022-08-01T15:13:34;21.23;;;19.42;;
55202;SDS011;41077;52.956;6.796;2022-08-01T15:16:00;18.50;;;16.95;;
55202;SDS011;41077;52.956;6.796;2022-08-01T15:18:26;18.33;;;15.27;;
55202;SDS011;41077;52.956;6.796;2022-08-01T15:20:52;19.10;;;17.08;;
55202;SDS011;41077;52.956;6.796;2022-08-01T15:23:18;16.45;;;15.13;;
55202;SDS011;41077;52.956;6.796;2022-08-01T15:25:44;18.40;;;16.67;;